sensor_id;sensor_type;location;lat;lon;timestamp;P1;durP1;ratioP1;P2;durP2;ratioP2
14125;SDS011;7141;49.484;11.242;2023-07-22T00:00:45;4.53;;;3.40;;
14125;SDS011;7141;49.484;11.242;2023-07-22T00:03:11;3.40;;;3.10;;
14125;SDS011;7141;49.484;11.242;2023-07-22T00:05:37;3.80;;;3.40;;
14125;SDS011;7141;49.484;11.242;2023-07-22T00:08:03;4.27;;;3.20;;
14125;SDS011;7141;49.484;11.242;2023-07-22T00:10:29;3.63;;;3.20;;
14125;SDS011;7141;49.484;11.242;2023-07-22T00:12:55;7.53;;;3.83;;
14125;SDS011;7141;49.484;11.242;2023-07-22T00:15:21;5.23;;;3.37;;
14125;SDS011;7141;49.484;11.242;2023-07-22T00:17:49;5.00;;;3.33;;
14125;SDS011;7141;49.484;11.242;2023-07-22T00:20:15;4.10;;;3.03;;
14125;SDS011;7141;49.484;11.242;2023-07-22T00:22:41;5.20;;;3.07;;
14125;SDS011;7141;49.484;11.242;2023-07-22T00:25:09;3.33;;;2.97;;
14125;SDS011;7141;49.484;11.242;2023-07-22T00:27:36;3.77;;;3.10;;
14125;SDS011;7141;49.484;11.242;2023-07-22T00:30:02;3.83;;;3.30;;
14125;SDS011;7141;49.484;11.242;2023-07-22T00:32:28;3.30;;;2.87;;
14125;SDS011;7141;49.484;11.242;2023-07-22T00:34:54;4.30;;;3.03;;
14125;SDS011;7141;49.484;11.242;2023-07-22T00:37:20;4.37;;;3.10;;
14125;SDS011;7141;49.484;11.242;2023-07-22T00:39:46;3.73;;;2.90;;
14125;SDS011;7141;49.484;11.242;2023-07-22T00:42:12;5.97;;;3.03;;
14125;SDS011;7141;49.484;11.242;2023-07-22T00:44:38;3.10;;;2.80;;
14125;SDS011;7141;49.484;11.242;2023-07-22T00:47:04;3.43;;;3.10;;
14125;SDS011;7141;49.484;11.242;2023-07-22T00:49:30;4.40;;;3.13;;
14125;SDS011;7141;49.484;11.242;2023-07-22T00:52:00;5.03;;;3.10;;
14125;SDS011;7141;49.484;11.242;2023-07-22T00:54:27;4.50;;;2.97;;
14125;SDS011;7141;49.484;11.242;2023-07-22T00:56:54;4.73;;;2.93;;
14125;SDS011;7141;49.484;11.242;2023-07-22T00:59:20;3.57;;;2.93;;
14125;SDS011;7141;49.484;11.242;2023-07-22T01:01:46;3.70;;;2.93;;
14125;SDS011;7141;49.484;11.242;2023-07-22T01:04:13;6.37;;;3.10;;
14125;SDS011;7141;49.484;11.242;2023-07-22T01:06:39;4.50;;;3.67;;
14125;SDS011;7141;49.484;11.242;2023-07-22T01:09:05;4.60;;;3.30;;
14125;SDS011;7141;49.484;11.242;2023-07-22T01:11:34;4.37;;;3.03;;
14125;SDS011;7141;49.484;11.242;2023-07-22T01:14:00;3.23;;;2.93;;
14125;SDS011;7141;49.484;11.242;2023-07-22T01:16:27;4.87;;;2.90;;
14125;SDS011;7141;49.484;11.242;2023-07-22T01:18:53;5.33;;;3.07;;
14125;SDS011;7141;49.484;11.242;2023-07-22T01:21:21;4.13;;;2.90;;
14125;SDS011;7141;49.484;11.242;2023-07-22T01:23:48;3.37;;;2.73;;
14125;SDS011;7141;49.484;11.242;2023-07-22T01:26:14;3.17;;;2.70;;
14125;SDS011;7141;49.484;11.242;2023-07-22T01:28:40;3.17;;;2.87;;
14125;SDS011;7141;49.484;11.242;2023-07-22T01:31:06;2.97;;;2.67;;
14125;SDS011;7141;49.484;11.242;2023-07-22T01:33:32;5.83;;;3.10;;
14125;SDS011;7141;49.484;11.242;2023-07-22T01:35:59;4.80;;;3.10;;
14125;SDS011;7141;49.484;11.242;2023-07-22T01:38:25;2.90;;;2.60;;
14125;SDS011;7141;49.484;11.242;2023-07-22T01:40:51;4.17;;;3.13;;
14125;SDS011;7141;49.484;11.242;2023-07-22T01:43:17;4.40;;;3.33;;
14125;SDS011;7141;49.484;11.242;2023-07-22T01:45:43;3.13;;;2.57;;
14125;SDS011;7141;49.484;11.242;2023-07-22T01:48:09;5.40;;;2.90;;
14125;SDS011;7141;49.484;11.242;2023-07-22T01:50:35;3.47;;;3.10;;
14125;SDS011;7141;49.484;11.242;2023-07-22T01:53:01;3.20;;;2.90;;
14125;SDS011;7141;49.484;11.242;2023-07-22T01:55:29;3.90;;;2.70;;
14125;SDS011;7141;49.484;11.242;2023-07-22T01:57:55;5.23;;;2.87;;
14125;SDS011;7141;49.484;11.242;2023-07-22T02:00:21;5.07;;;3.13;;
14125;SDS011;7141;49.484;11.242;2023-07-22T02:02:47;3.30;;;3.00;;
14125;SDS011;7141;49.484;11.242;2023-07-22T02:05:12;4.80;;;2.90;;
14125;SDS011;7141;49.484;11.242;2023-07-22T02:07:38;4.00;;;3.17;;
14125;SDS011;7141;49.484;11.242;2023-07-22T02:10:05;4.53;;;3.03;;
14125;SDS011;7141;49.484;11.242;2023-07-22T02:12:31;4.17;;;3.10;;
14125;SDS011;7141;49.484;11.242;2023-07-22T02:14:57;3.60;;;2.93;;
14125;SDS011;7141;49.484;11.242;2023-07-22T02:17:23;4.13;;;2.90;;
14125;SDS011;7141;49.484;11.242;2023-07-22T02:19:49;3.43;;;2.97;;
14125;SDS011;7141;49.484;11.242;2023-07-22T02:22:15;3.60;;;2.97;;
14125;SDS011;7141;49.484;11.242;2023-07-22T02:24:41;3.53;;;2.77;;
14125;SDS011;7141;49.484;11.242;2023-07-22T02:27:07;4.03;;;2.80;;
14125;SDS011;7141;49.484;11.242;2023-07-22T02:29:33;4.03;;;3.10;;
14125;SDS011;7141;49.484;11.242;2023-07-22T02:31:59;5.87;;;3.07;;
14125;SDS011;7141;49.484;11.242;2023-07-22T02:34:26;4.77;;;3.33;;
14125;SDS011;7141;49.484;11.242;2023-07-22T02:36:52;3.73;;;3.10;;
14125;SDS011;7141;49.484;11.242;2023-07-22T02:39:18;4.33;;;3.10;;
14125;SDS011;7141;49.484;11.242;2023-07-22T02:41:44;4.10;;;3.10;;
14125;SDS011;7141;49.484;11.242;2023-07-22T02:44:11;3.40;;;3.03;;
14125;SDS011;7141;49.484;11.242;2023-07-22T02:46:37;6.40;;;3.23;;
14125;SDS011;7141;49.484;11.242;2023-07-22T02:49:03;4.17;;;3.17;;
14125;SDS011;7141;49.484;11.242;2023-07-22T02:51:30;3.40;;;3.10;;
14125;SDS011;7141;49.484;11.242;2023-07-22T02:53:56;5.90;;;3.30;;
14125;SDS011;7141;49.484;11.242;2023-07-22T02:56:22;3.47;;;2.80;;
14125;SDS011;7141;49.484;11.242;2023-07-22T02:58:48;3.70;;;3.00;;
14125;SDS011;7141;49.484;11.242;2023-07-22T03:01:14;3.13;;;2.73;;
14125;SDS011;7141;49.484;11.242;2023-07-22T03:03:40;4.67;;;3.27;;
14125;SDS011;7141;49.484;11.242;2023-07-22T03:06:06;3.80;;;2.90;;
14125;SDS011;7141;49.484;11.242;2023-07-22T03:08:33;3.07;;;2.80;;
14125;SDS011;7141;49.484;11.242;2023-07-22T03:11:00;4.73;;;3.13;;
14125;SDS011;7141;49.484;11.242;2023-07-22T03:13:26;4.50;;;2.97;;
14125;SDS011;7141;49.484;11.242;2023-07-22T03:15:54;4.07;;;3.00;;
14125;SDS011;7141;49.484;11.242;2023-07-22T03:18:21;4.07;;;3.20;;
14125;SDS011;7141;49.484;11.242;2023-07-22T03:20:47;3.57;;;3.27;;
14125;SDS011;7141;49.484;11.242;2023-07-22T03:23:13;3.67;;;3.00;;
14125;SDS011;7141;49.484;11.242;2023-07-22T03:25:39;4.37;;;3.27;;
14125;SDS011;7141;49.484;11.242;2023-07-22T03:28:06;3.73;;;3.00;;
14125;SDS011;7141;49.484;11.242;2023-07-22T03:30:33;4.53;;;2.80;;
14125;SDS011;7141;49.484;11.242;2023-07-22T03:32:59;3.43;;;2.80;;
14125;SDS011;7141;49.484;11.242;2023-07-22T03:35:25;3.90;;;2.90;;
14125;SDS011;7141;49.484;11.242;2023-07-22T03:37:52;4.97;;;2.80;;
14125;SDS011;7141;49.484;11.242;2023-07-22T03:40:18;3.10;;;2.70;;
14125;SDS011;7141;49.484;11.242;2023-07-22T03:42:46;4.27;;;2.83;;
14125;SDS011;7141;49.484;11.242;2023-07-22T03:45:12;3.00;;;2.70;;
14125;SDS011;7141;49.484;11.242;2023-07-22T03:47:38;5.07;;;3.00;;
14125;SDS011;7141;49.484;11.242;2023-07-22T03:50:04;3.23;;;2.93;;
14125;SDS011;7141;49.484;11.242;2023-07-22T03:52:30;5.53;;;3.20;;
14125;SDS011;7141;49.484;11.242;2023-07-22T03:54:56;3.87;;;2.60;;
14125;SDS011;7141;49.484;11.242;2023-07-22T03:57:26;4.23;;;2.70;;
14125;SDS011;7141;49.484;11.242;2023-07-22T03:59:53;3.07;;;2.60;;
14125;SDS011;7141;49.484;11.242;2023-07-22T04:02:19;3.00;;;2.70;;
14125;SDS011;7141;49.484;11.242;2023-07-22T04:04:44;4.97;;;2.83;;
14125;SDS011;7141;49.484;11.242;2023-07-22T04:07:10;3.03;;;2.73;;
14125;SDS011;7141;49.484;11.242;2023-07-22T04:09:36;4.20;;;2.97;;
14125;SDS011;7141;49.484;11.242;2023-07-22T04:12:02;5.40;;;3.87;;
14125;SDS011;7141;49.484;11.242;2023-07-22T04:14:28;13.80;;;7.80;;
14125;SDS011;7141;49.484;11.242;2023-07-22T04:16:54;5.93;;;4.30;;
14125;SDS011;7141;49.484;11.242;2023-07-22T04:19:20;8.50;;;5.23;;
14125;SDS011;7141;49.484;11.242;2023-07-22T04:21:46;8.13;;;4.77;;
14125;SDS011;7141;49.484;11.242;2023-07-22T04:24:12;5.70;;;4.00;;
14125;SDS011;7141;49.484;11.242;2023-07-22T04:26:40;5.17;;;3.50;;
14125;SDS011;7141;49.484;11.242;2023-07-22T04:29:06;4.80;;;3.20;;
14125;SDS011;7141;49.484;11.242;2023-07-22T04:31:32;4.47;;;3.00;;
14125;SDS011;7141;49.484;11.242;2023-07-22T04:33:58;3.50;;;2.70;;
14125;SDS011;7141;49.484;11.242;2023-07-22T04:36:24;3.60;;;3.07;;
14125;SDS011;7141;49.484;11.242;2023-07-22T04:38:50;4.00;;;2.57;;
14125;SDS011;7141;49.484;11.242;2023-07-22T04:41:16;3.77;;;2.70;;
14125;SDS011;7141;49.484;11.242;2023-07-22T04:43:42;4.37;;;2.53;;
14125;SDS011;7141;49.484;11.242;2023-07-22T04:46:08;4.93;;;2.83;;
14125;SDS011;7141;49.484;11.242;2023-07-22T04:48:34;3.30;;;2.43;;
14125;SDS011;7141;49.484;11.242;2023-07-22T04:51:01;4.10;;;2.87;;
14125;SDS011;7141;49.484;11.242;2023-07-22T04:53:27;3.57;;;2.90;;
14125;SDS011;7141;49.484;11.242;2023-07-22T04:55:53;3.97;;;3.10;;
14125;SDS011;7141;49.484;11.242;2023-07-22T04:58:20;2.70;;;2.50;;
14125;SDS011;7141;49.484;11.242;2023-07-22T05:00:46;3.83;;;3.00;;
14125;SDS011;7141;49.484;11.242;2023-07-22T05:03:13;3.37;;;3.00;;
14125;SDS011;7141;49.484;11.242;2023-07-22T05:05:39;5.63;;;2.47;;
14125;SDS011;7141;49.484;11.242;2023-07-22T05:08:05;4.70;;;2.80;;
14125;SDS011;7141;49.484;11.242;2023-07-22T05:10:33;4.60;;;3.00;;
14125;SDS011;7141;49.484;11.242;2023-07-22T05:12:59;6.10;;;2.60;;
14125;SDS011;7141;49.484;11.242;2023-07-22T05:15:25;4.40;;;2.70;;
14125;SDS011;7141;49.484;11.242;2023-07-22T05:17:51;3.73;;;2.60;;
14125;SDS011;7141;49.484;11.242;2023-07-22T05:20:17;4.73;;;2.87;;
14125;SDS011;7141;49.484;11.242;2023-07-22T05:22:43;5.13;;;2.70;;
14125;SDS011;7141;49.484;11.242;2023-07-22T05:25:09;6.53;;;3.07;;
14125;SDS011;7141;49.484;11.242;2023-07-22T05:27:35;2.90;;;2.27;;
14125;SDS011;7141;49.484;11.242;2023-07-22T05:30:02;4.47;;;2.67;;
14125;SDS011;7141;49.484;11.242;2023-07-22T05:32:28;3.13;;;2.80;;
14125;SDS011;7141;49.484;11.242;2023-07-22T05:34:54;4.27;;;2.57;;
14125;SDS011;7141;49.484;11.242;2023-07-22T05:37:21;5.90;;;2.80;;
14125;SDS011;7141;49.484;11.242;2023-07-22T05:39:47;2.33;;;2.13;;
14125;SDS011;7141;49.484;11.242;2023-07-22T05:42:13;3.00;;;2.70;;
14125;SDS011;7141;49.484;11.242;2023-07-22T05:44:39;4.67;;;2.97;;
14125;SDS011;7141;49.484;11.242;2023-07-22T05:47:05;4.10;;;3.17;;
14125;SDS011;7141;49.484;11.242;2023-07-22T05:49:31;3.47;;;2.80;;
14125;SDS011;7141;49.484;11.242;2023-07-22T05:51:57;4.40;;;3.00;;
14125;SDS011;7141;49.484;11.242;2023-07-22T05:54:23;3.97;;;2.57;;
14125;SDS011;7141;49.484;11.242;2023-07-22T05:56:49;5.27;;;2.70;;
14125;SDS011;7141;49.484;11.242;2023-07-22T05:59:15;3.07;;;2.67;;
14125;SDS011;7141;49.484;11.242;2023-07-22T06:01:41;5.23;;;2.57;;
14125;SDS011;7141;49.484;11.242;2023-07-22T06:04:07;4.03;;;2.53;;
14125;SDS011;7141;49.484;11.242;2023-07-22T06:06:33;3.77;;;2.60;;
14125;SDS011;7141;49.484;11.242;2023-07-22T06:08:59;4.87;;;2.90;;
14125;SDS011;7141;49.484;11.242;2023-07-22T06:11:25;2.83;;;2.53;;
14125;SDS011;7141;49.484;11.242;2023-07-22T06:13:51;3.67;;;2.47;;
14125;SDS011;7141;49.484;11.242;2023-07-22T06:16:17;4.53;;;2.50;;
14125;SDS011;7141;49.484;11.242;2023-07-22T06:18:43;3.70;;;2.10;;
14125;SDS011;7141;49.484;11.242;2023-07-22T06:21:09;2.83;;;2.33;;
14125;SDS011;7141;49.484;11.242;2023-07-22T06:23:35;3.40;;;2.43;;
14125;SDS011;7141;49.484;11.242;2023-07-22T06:26:02;3.73;;;2.50;;
14125;SDS011;7141;49.484;11.242;2023-07-22T06:28:27;3.53;;;2.57;;
14125;SDS011;7141;49.484;11.242;2023-07-22T06:30:53;5.33;;;2.70;;
14125;SDS011;7141;49.484;11.242;2023-07-22T06:33:19;3.73;;;2.40;;
14125;SDS011;7141;49.484;11.242;2023-07-22T06:35:46;8.27;;;2.60;;
14125;SDS011;7141;49.484;11.242;2023-07-22T06:38:12;4.40;;;2.87;;
14125;SDS011;7141;49.484;11.242;2023-07-22T06:40:38;2.90;;;2.30;;
14125;SDS011;7141;49.484;11.242;2023-07-22T06:43:04;3.93;;;2.80;;
14125;SDS011;7141;49.484;11.242;2023-07-22T06:45:31;3.73;;;2.67;;
14125;SDS011;7141;49.484;11.242;2023-07-22T06:47:57;4.43;;;2.73;;
14125;SDS011;7141;49.484;11.242;2023-07-22T06:50:23;5.63;;;3.13;;
14125;SDS011;7141;49.484;11.242;2023-07-22T06:52:49;5.17;;;3.40;;
14125;SDS011;7141;49.484;11.242;2023-07-22T06:55:15;5.07;;;3.10;;
14125;SDS011;7141;49.484;11.242;2023-07-22T06:57:41;6.10;;;3.43;;
14125;SDS011;7141;49.484;11.242;2023-07-22T07:00:07;4.17;;;2.90;;
14125;SDS011;7141;49.484;11.242;2023-07-22T07:02:34;8.33;;;3.40;;
14125;SDS011;7141;49.484;11.242;2023-07-22T07:05:01;7.97;;;3.50;;
14125;SDS011;7141;49.484;11.242;2023-07-22T07:07:27;5.73;;;3.13;;
14125;SDS011;7141;49.484;11.242;2023-07-22T07:09:53;3.57;;;3.23;;
14125;SDS011;7141;49.484;11.242;2023-07-22T07:12:19;4.73;;;2.70;;
14125;SDS011;7141;49.484;11.242;2023-07-22T07:14:45;4.80;;;2.77;;
14125;SDS011;7141;49.484;11.242;2023-07-22T07:17:11;5.73;;;3.00;;
14125;SDS011;7141;49.484;11.242;2023-07-22T07:19:36;3.77;;;2.73;;
14125;SDS011;7141;49.484;11.242;2023-07-22T07:22:03;3.53;;;2.90;;
14125;SDS011;7141;49.484;11.242;2023-07-22T07:24:28;3.83;;;2.70;;
14125;SDS011;7141;49.484;11.242;2023-07-22T07:26:54;5.20;;;2.63;;
14125;SDS011;7141;49.484;11.242;2023-07-22T07:29:20;3.20;;;2.90;;
14125;SDS011;7141;49.484;11.242;2023-07-22T07:31:46;3.27;;;2.80;;
14125;SDS011;7141;49.484;11.242;2023-07-22T07:34:12;3.53;;;2.60;;
14125;SDS011;7141;49.484;11.242;2023-07-22T07:36:38;4.93;;;2.73;;
14125;SDS011;7141;49.484;11.242;2023-07-22T07:39:04;4.40;;;2.93;;
14125;SDS011;7141;49.484;11.242;2023-07-22T07:41:30;3.73;;;2.40;;
14125;SDS011;7141;49.484;11.242;2023-07-22T07:43:56;4.30;;;2.90;;
14125;SDS011;7141;49.484;11.242;2023-07-22T07:46:26;5.03;;;2.97;;
14125;SDS011;7141;49.484;11.242;2023-07-22T07:48:54;5.50;;;3.20;;
14125;SDS011;7141;49.484;11.242;2023-07-22T07:51:20;4.17;;;2.90;;
14125;SDS011;7141;49.484;11.242;2023-07-22T07:53:47;4.33;;;2.80;;
14125;SDS011;7141;49.484;11.242;2023-07-22T07:56:13;4.23;;;2.70;;
14125;SDS011;7141;49.484;11.242;2023-07-22T07:58:39;5.23;;;3.23;;
14125;SDS011;7141;49.484;11.242;2023-07-22T08:01:06;4.47;;;3.17;;
14125;SDS011;7141;49.484;11.242;2023-07-22T08:03:32;3.87;;;3.07;;
14125;SDS011;7141;49.484;11.242;2023-07-22T08:05:58;3.10;;;2.77;;
14125;SDS011;7141;49.484;11.242;2023-07-22T08:08:24;3.97;;;2.97;;
14125;SDS011;7141;49.484;11.242;2023-07-22T08:11:24;4.80;;;3.00;;
14125;SDS011;7141;49.484;11.242;2023-07-22T08:13:43;5.27;;;2.83;;
14125;SDS011;7141;49.484;11.242;2023-07-22T08:16:10;5.17;;;2.90;;
14125;SDS011;7141;49.484;11.242;2023-07-22T08:18:36;4.07;;;2.87;;
14125;SDS011;7141;49.484;11.242;2023-07-22T08:21:03;6.93;;;3.10;;
14125;SDS011;7141;49.484;11.242;2023-07-22T08:23:30;5.27;;;3.00;;
14125;SDS011;7141;49.484;11.242;2023-07-22T08:25:56;4.30;;;2.83;;
14125;SDS011;7141;49.484;11.242;2023-07-22T08:28:22;5.07;;;3.30;;
14125;SDS011;7141;49.484;11.242;2023-07-22T08:30:48;4.30;;;3.50;;
14125;SDS011;7141;49.484;11.242;2023-07-22T08:33:14;4.43;;;2.87;;
14125;SDS011;7141;49.484;11.242;2023-07-22T08:35:41;4.20;;;3.00;;
14125;SDS011;7141;49.484;11.242;2023-07-22T08:38:07;3.60;;;2.90;;
14125;SDS011;7141;49.484;11.242;2023-07-22T08:40:37;4.07;;;3.20;;
14125;SDS011;7141;49.484;11.242;2023-07-22T08:43:04;5.43;;;3.07;;
14125;SDS011;7141;49.484;11.242;2023-07-22T08:45:31;4.80;;;2.90;;
14125;SDS011;7141;49.484;11.242;2023-07-22T08:47:59;5.90;;;3.50;;
14125;SDS011;7141;49.484;11.242;2023-07-22T08:50:26;5.47;;;3.50;;
14125;SDS011;7141;49.484;11.242;2023-07-22T08:52:55;3.33;;;3.00;;
14125;SDS011;7141;49.484;11.242;2023-07-22T08:55:21;4.47;;;2.80;;
14125;SDS011;7141;49.484;11.242;2023-07-22T08:57:47;4.00;;;3.33;;
14125;SDS011;7141;49.484;11.242;2023-07-22T09:00:14;3.50;;;3.20;;
14125;SDS011;7141;49.484;11.242;2023-07-22T09:02:40;4.43;;;3.23;;
14125;SDS011;7141;49.484;11.242;2023-07-22T09:05:07;4.90;;;3.07;;
14125;SDS011;7141;49.484;11.242;2023-07-22T09:07:34;4.50;;;3.57;;
14125;SDS011;7141;49.484;11.242;2023-07-22T09:10:00;4.07;;;3.60;;
14125;SDS011;7141;49.484;11.242;2023-07-22T09:12:27;4.10;;;3.30;;
14125;SDS011;7141;49.484;11.242;2023-07-22T09:14:53;4.67;;;3.70;;
14125;SDS011;7141;49.484;11.242;2023-07-22T09:17:19;4.60;;;3.73;;
14125;SDS011;7141;49.484;11.242;2023-07-22T09:19:45;4.33;;;3.30;;
14125;SDS011;7141;49.484;11.242;2023-07-22T09:22:11;3.27;;;2.97;;
14125;SDS011;7141;49.484;11.242;2023-07-22T09:24:37;4.70;;;3.40;;
14125;SDS011;7141;49.484;11.242;2023-07-22T09:27:03;4.73;;;3.90;;
14125;SDS011;7141;49.484;11.242;2023-07-22T09:29:47;5.03;;;3.73;;
14125;SDS011;7141;49.484;11.242;2023-07-22T09:32:14;4.30;;;3.90;;
14125;SDS011;7141;49.484;11.242;2023-07-22T09:34:56;6.87;;;5.03;;
14125;SDS011;7141;49.484;11.242;2023-07-22T09:37:22;6.63;;;4.90;;
14125;SDS011;7141;49.484;11.242;2023-07-22T09:39:50;7.13;;;5.40;;
14125;SDS011;7141;49.484;11.242;2023-07-22T09:42:23;7.07;;;5.63;;
14125;SDS011;7141;49.484;11.242;2023-07-22T09:44:49;6.00;;;4.73;;
14125;SDS011;7141;49.484;11.242;2023-07-22T09:47:15;5.97;;;4.63;;
14125;SDS011;7141;49.484;11.242;2023-07-22T09:49:41;5.30;;;4.80;;
14125;SDS011;7141;49.484;11.242;2023-07-22T09:52:10;5.30;;;4.80;;
14125;SDS011;7141;49.484;11.242;2023-07-22T09:54:46;5.43;;;4.90;;
14125;SDS011;7141;49.484;11.242;2023-07-22T09:57:13;6.00;;;4.60;;
14125;SDS011;7141;49.484;11.242;2023-07-22T09:59:39;8.00;;;4.93;;
14125;SDS011;7141;49.484;11.242;2023-07-22T10:02:05;5.57;;;4.40;;
14125;SDS011;7141;49.484;11.242;2023-07-22T10:04:33;4.83;;;3.90;;
14125;SDS011;7141;49.484;11.242;2023-07-22T10:06:59;5.70;;;4.20;;
14125;SDS011;7141;49.484;11.242;2023-07-22T10:09:25;5.27;;;4.27;;
14125;SDS011;7141;49.484;11.242;2023-07-22T10:11:53;4.30;;;3.90;;
14125;SDS011;7141;49.484;11.242;2023-07-22T10:14:20;4.80;;;4.00;;
14125;SDS011;7141;49.484;11.242;2023-07-22T10:16:46;5.30;;;4.03;;
14125;SDS011;7141;49.484;11.242;2023-07-22T10:19:12;5.07;;;3.60;;
14125;SDS011;7141;49.484;11.242;2023-07-22T10:21:38;4.47;;;3.53;;
14125;SDS011;7141;49.484;11.242;2023-07-22T10:24:04;4.30;;;3.90;;
14125;SDS011;7141;49.484;11.242;2023-07-22T10:26:31;4.00;;;3.57;;
14125;SDS011;7141;49.484;11.242;2023-07-22T10:28:57;4.13;;;3.47;;
14125;SDS011;7141;49.484;11.242;2023-07-22T10:31:24;4.13;;;3.57;;
14125;SDS011;7141;49.484;11.242;2023-07-22T10:33:50;3.93;;;3.47;;
14125;SDS011;7141;49.484;11.242;2023-07-22T10:36:16;4.27;;;3.37;;
14125;SDS011;7141;49.484;11.242;2023-07-22T10:38:43;4.20;;;3.67;;
14125;SDS011;7141;49.484;11.242;2023-07-22T10:41:13;4.10;;;3.40;;
14125;SDS011;7141;49.484;11.242;2023-07-22T10:43:41;4.00;;;3.47;;
14125;SDS011;7141;49.484;11.242;2023-07-22T10:46:11;4.57;;;3.20;;
14125;SDS011;7141;49.484;11.242;2023-07-22T10:48:41;6.93;;;3.87;;
14125;SDS011;7141;49.484;11.242;2023-07-22T10:53:37;4.57;;;3.67;;
14125;SDS011;7141;49.484;11.242;2023-07-22T11:04:07;5.47;;;3.30;;
14125;SDS011;7141;49.484;11.242;2023-07-22T11:06:38;3.43;;;3.07;;
14125;SDS011;7141;49.484;11.242;2023-07-22T11:09:04;3.97;;;3.17;;
14125;SDS011;7141;49.484;11.242;2023-07-22T11:11:40;3.30;;;2.90;;
14125;SDS011;7141;49.484;11.242;2023-07-22T11:16:39;3.57;;;3.27;;
14125;SDS011;7141;49.484;11.242;2023-07-22T11:19:05;3.17;;;2.73;;
14125;SDS011;7141;49.484;11.242;2023-07-22T11:21:31;3.20;;;2.77;;
14125;SDS011;7141;49.484;11.242;2023-07-22T11:23:57;3.33;;;3.03;;
14125;SDS011;7141;49.484;11.242;2023-07-22T11:26:23;3.73;;;2.93;;
14125;SDS011;7141;49.484;11.242;2023-07-22T11:28:49;3.60;;;3.17;;
14125;SDS011;7141;49.484;11.242;2023-07-22T11:31:17;4.70;;;3.67;;
14125;SDS011;7141;49.484;11.242;2023-07-22T11:33:43;3.40;;;3.10;;
14125;SDS011;7141;49.484;11.242;2023-07-22T11:36:11;3.50;;;3.13;;
14125;SDS011;7141;49.484;11.242;2023-07-22T11:38:38;3.50;;;3.10;;
14125;SDS011;7141;49.484;11.242;2023-07-22T11:41:04;3.60;;;2.93;;
14125;SDS011;7141;49.484;11.242;2023-07-22T11:43:30;3.20;;;2.90;;
14125;SDS011;7141;49.484;11.242;2023-07-22T11:45:56;3.77;;;3.37;;
14125;SDS011;7141;49.484;11.242;2023-07-22T11:48:22;2.97;;;2.67;;
14125;SDS011;7141;49.484;11.242;2023-07-22T11:50:48;4.97;;;2.73;;
14125;SDS011;7141;49.484;11.242;2023-07-22T11:53:14;3.30;;;3.00;;
14125;SDS011;7141;49.484;11.242;2023-07-22T11:55:40;3.07;;;2.60;;
14125;SDS011;7141;49.484;11.242;2023-07-22T11:58:06;5.57;;;3.13;;
14125;SDS011;7141;49.484;11.242;2023-07-22T12:00:34;3.57;;;3.20;;
14125;SDS011;7141;49.484;11.242;2023-07-22T12:03:05;3.30;;;2.93;;
14125;SDS011;7141;49.484;11.242;2023-07-22T12:05:31;4.03;;;3.07;;
14125;SDS011;7141;49.484;11.242;2023-07-22T12:08:02;3.93;;;2.63;;
14125;SDS011;7141;49.484;11.242;2023-07-22T12:10:29;4.93;;;3.07;;
14125;SDS011;7141;49.484;11.242;2023-07-22T12:12:55;3.53;;;2.60;;
14125;SDS011;7141;49.484;11.242;2023-07-22T12:15:26;3.10;;;2.67;;
14125;SDS011;7141;49.484;11.242;2023-07-22T12:17:56;3.23;;;2.83;;
14125;SDS011;7141;49.484;11.242;2023-07-22T12:20:23;4.17;;;2.70;;
14125;SDS011;7141;49.484;11.242;2023-07-22T12:22:50;2.97;;;2.43;;
14125;SDS011;7141;49.484;11.242;2023-07-22T12:25:16;3.30;;;2.53;;
14125;SDS011;7141;49.484;11.242;2023-07-22T12:27:43;3.83;;;2.50;;
14125;SDS011;7141;49.484;11.242;2023-07-22T12:30:09;6.00;;;2.60;;
14125;SDS011;7141;49.484;11.242;2023-07-22T12:32:35;3.00;;;2.50;;
14125;SDS011;7141;49.484;11.242;2023-07-22T12:35:01;3.30;;;2.80;;
14125;SDS011;7141;49.484;11.242;2023-07-22T12:37:28;4.60;;;2.93;;
14125;SDS011;7141;49.484;11.242;2023-07-22T12:39:55;3.43;;;2.30;;
14125;SDS011;7141;49.484;11.242;2023-07-22T12:42:21;3.10;;;2.60;;
14125;SDS011;7141;49.484;11.242;2023-07-22T12:44:47;2.73;;;2.50;;
14125;SDS011;7141;49.484;11.242;2023-07-22T12:47:13;2.90;;;2.60;;
14125;SDS011;7141;49.484;11.242;2023-07-22T12:49:39;3.50;;;2.67;;
14125;SDS011;7141;49.484;11.242;2023-07-22T12:52:06;3.20;;;2.43;;
14125;SDS011;7141;49.484;11.242;2023-07-22T12:54:34;2.93;;;2.67;;
14125;SDS011;7141;49.484;11.242;2023-07-22T12:57:00;3.03;;;2.50;;
14125;SDS011;7141;49.484;11.242;2023-07-22T12:59:27;3.40;;;2.60;;
14125;SDS011;7141;49.484;11.242;2023-07-22T13:01:52;3.07;;;2.30;;
14125;SDS011;7141;49.484;11.242;2023-07-22T13:04:19;2.83;;;2.53;;
14125;SDS011;7141;49.484;11.242;2023-07-22T13:06:45;2.40;;;2.20;;
14125;SDS011;7141;49.484;11.242;2023-07-22T13:09:11;2.90;;;2.53;;
14125;SDS011;7141;49.484;11.242;2023-07-22T13:11:37;3.17;;;2.43;;
14125;SDS011;7141;49.484;11.242;2023-07-22T13:14:03;2.50;;;2.30;;
14125;SDS011;7141;49.484;11.242;2023-07-22T13:16:29;2.93;;;2.33;;
14125;SDS011;7141;49.484;11.242;2023-07-22T13:18:55;3.37;;;2.67;;
14125;SDS011;7141;49.484;11.242;2023-07-22T13:21:21;3.40;;;2.57;;
14125;SDS011;7141;49.484;11.242;2023-07-22T13:23:47;3.03;;;2.50;;
14125;SDS011;7141;49.484;11.242;2023-07-22T13:26:13;3.43;;;2.50;;
14125;SDS011;7141;49.484;11.242;2023-07-22T13:28:39;3.07;;;2.47;;
14125;SDS011;7141;49.484;11.242;2023-07-22T13:31:05;2.97;;;2.37;;
14125;SDS011;7141;49.484;11.242;2023-07-22T13:33:31;3.07;;;2.77;;
14125;SDS011;7141;49.484;11.242;2023-07-22T13:35:57;2.80;;;2.50;;
14125;SDS011;7141;49.484;11.242;2023-07-22T13:38:23;2.50;;;2.30;;
14125;SDS011;7141;49.484;11.242;2023-07-22T13:40:49;2.63;;;2.43;;
14125;SDS011;7141;49.484;11.242;2023-07-22T13:43:16;4.93;;;2.73;;
14125;SDS011;7141;49.484;11.242;2023-07-22T13:45:42;2.80;;;2.60;;
14125;SDS011;7141;49.484;11.242;2023-07-22T13:48:07;2.90;;;2.60;;
14125;SDS011;7141;49.484;11.242;2023-07-22T13:50:36;4.57;;;3.00;;
14125;SDS011;7141;49.484;11.242;2023-07-22T13:53:02;4.00;;;2.63;;
14125;SDS011;7141;49.484;11.242;2023-07-22T13:55:28;2.80;;;2.60;;
14125;SDS011;7141;49.484;11.242;2023-07-22T13:57:54;2.80;;;2.50;;
14125;SDS011;7141;49.484;11.242;2023-07-22T14:00:20;4.80;;;3.23;;
14125;SDS011;7141;49.484;11.242;2023-07-22T14:02:46;4.67;;;2.60;;
14125;SDS011;7141;49.484;11.242;2023-07-22T14:05:12;3.53;;;3.20;;
14125;SDS011;7141;49.484;11.242;2023-07-22T14:07:38;3.10;;;2.30;;
14125;SDS011;7141;49.484;11.242;2023-07-22T14:10:04;4.57;;;2.93;;
14125;SDS011;7141;49.484;11.242;2023-07-22T14:12:31;3.90;;;2.60;;
14125;SDS011;7141;49.484;11.242;2023-07-22T14:14:57;3.63;;;2.97;;
14125;SDS011;7141;49.484;11.242;2023-07-22T14:17:23;3.00;;;2.67;;
14125;SDS011;7141;49.484;11.242;2023-07-22T14:19:49;3.00;;;2.70;;
14125;SDS011;7141;49.484;11.242;2023-07-22T14:22:15;5.23;;;3.10;;
14125;SDS011;7141;49.484;11.242;2023-07-22T14:24:41;3.73;;;2.50;;
14125;SDS011;7141;49.484;11.242;2023-07-22T14:27:07;3.73;;;2.77;;
14125;SDS011;7141;49.484;11.242;2023-07-22T14:29:33;3.83;;;3.07;;
14125;SDS011;7141;49.484;11.242;2023-07-22T14:31:58;2.93;;;2.70;;
14125;SDS011;7141;49.484;11.242;2023-07-22T14:34:25;3.27;;;2.97;;
14125;SDS011;7141;49.484;11.242;2023-07-22T14:36:50;4.00;;;2.70;;
14125;SDS011;7141;49.484;11.242;2023-07-22T14:39:16;3.37;;;2.77;;
14125;SDS011;7141;49.484;11.242;2023-07-22T14:41:42;3.47;;;2.90;;
14125;SDS011;7141;49.484;11.242;2023-07-22T14:44:09;3.60;;;2.80;;
14125;SDS011;7141;49.484;11.242;2023-07-22T14:46:34;3.00;;;2.70;;
14125;SDS011;7141;49.484;11.242;2023-07-22T14:49:01;3.43;;;2.80;;
14125;SDS011;7141;49.484;11.242;2023-07-22T14:51:27;3.33;;;2.83;;
14125;SDS011;7141;49.484;11.242;2023-07-22T14:53:53;3.00;;;2.67;;
14125;SDS011;7141;49.484;11.242;2023-07-22T14:56:19;3.80;;;3.17;;